sensor_id;sensor_type;location;lat;lon;timestamp;pressure;altitude;pressure_sealevel;temperature;humidity
12594;BME280;6362;50.208;9.182;2023-05-29T00:00:16;100042.84;;;14.46;55.33
12594;BME280;6362;50.208;9.182;2023-05-29T00:02:44;100045.59;;;14.40;55.71
12594;BME280;6362;50.208;9.182;2023-05-29T00:05:13;100035.31;;;14.31;56.00
12594;BME280;6362;50.208;9.182;2023-05-29T00:07:40;100045.94;;;14.23;56.43
12594;BME280;6362;50.208;9.182;2023-05-29T00:10:06;100048.69;;;14.17;56.64
12594;BME280;6362;50.208;9.182;2023-05-29T00:12:32;100048.88;;;14.08;56.93
12594;BME280;6362;50.208;9.182;2023-05-29T00:14:58;100043.88;;;13.96;57.26
12594;BME280;6362;50.208;9.182;2023-05-29T00:17:24;100049.22;;;13.90;57.54
12594;BME280;6362;50.208;9.182;2023-05-29T00:19:49;100051.16;;;13.80;57.99
12594;BME280;6362;50.208;9.182;2023-05-29T00:22:15;100039.91;;;13.75;58.35
12594;BME280;6362;50.208;9.182;2023-05-29T00:24:41;100043.53;;;13.68;58.42
12594;BME280;6362;50.208;9.182;2023-05-29T00:27:06;100042.91;;;13.55;58.98
12594;BME280;6362;50.208;9.182;2023-05-29T00:29:34;100041.25;;;13.51;59.31
12594;BME280;6362;50.208;9.182;2023-05-29T00:31:59;100044.78;;;13.47;59.44
12594;BME280;6362;50.208;9.182;2023-05-29T00:34:25;100046.63;;;13.42;59.43
12594;BME280;6362;50.208;9.182;2023-05-29T00:36:51;100048.53;;;13.31;59.97
12594;BME280;6362;50.208;9.182;2023-05-29T00:39:17;100040.81;;;13.25;60.00
12594;BME280;6362;50.208;9.182;2023-05-29T00:41:42;100046.06;;;13.23;59.97
12594;BME280;6362;50.208;9.182;2023-05-29T00:44:08;100053.91;;;13.23;59.73
12594;BME280;6362;50.208;9.182;2023-05-29T00:46:34;100051.41;;;13.14;60.08
12594;BME280;6362;50.208;9.182;2023-05-29T00:49:00;100051.41;;;13.14;60.41
12594;BME280;6362;50.208;9.182;2023-05-29T00:51:27;100047.03;;;13.16;60.71
12594;BME280;6362;50.208;9.182;2023-05-29T00:53:53;100048.03;;;13.07;60.71
12594;BME280;6362;50.208;9.182;2023-05-29T00:56:20;100039.44;;;12.99;61.13
12594;BME280;6362;50.208;9.182;2023-05-29T00:58:47;100043.00;;;12.93;61.62
12594;BME280;6362;50.208;9.182;2023-05-29T01:01:15;100033.63;;;12.82;62.23
12594;BME280;6362;50.208;9.182;2023-05-29T01:03:41;100040.75;;;12.71;62.60
12594;BME280;6362;50.208;9.182;2023-05-29T01:06:07;100046.13;;;12.61;62.76
12594;BME280;6362;50.208;9.182;2023-05-29T01:08:33;100042.72;;;12.53;63.17
12594;BME280;6362;50.208;9.182;2023-05-29T01:13:44;100044.66;;;12.40;63.62
12594;BME280;6362;50.208;9.182;2023-05-29T01:16:22;100041.25;;;12.32;63.85
12594;BME280;6362;50.208;9.182;2023-05-29T01:22:12;100048.47;;;12.13;64.74
12594;BME280;6362;50.208;9.182;2023-05-29T01:24:51;100053.78;;;12.04;65.45
12594;BME280;6362;50.208;9.182;2023-05-29T01:27:24;100045.25;;;11.92;65.94
12594;BME280;6362;50.208;9.182;2023-05-29T01:29:51;100041.88;;;11.80;66.67
12594;BME280;6362;50.208;9.182;2023-05-29T01:32:20;100040.16;;;11.76;66.42
12594;BME280;6362;50.208;9.182;2023-05-29T01:34:46;100042.00;;;11.68;66.79
12594;BME280;6362;50.208;9.182;2023-05-29T01:37:12;100042.91;;;11.62;66.66
12594;BME280;6362;50.208;9.182;2023-05-29T01:39:38;100050.78;;;11.58;66.87
12594;BME280;6362;50.208;9.182;2023-05-29T01:42:04;100041.25;;;11.54;67.13
12594;BME280;6362;50.208;9.182;2023-05-29T01:44:30;100044.81;;;11.47;67.52
12594;BME280;6362;50.208;9.182;2023-05-29T01:46:56;100048.28;;;11.47;67.19
12594;BME280;6362;50.208;9.182;2023-05-29T01:49:24;100043.06;;;11.50;66.90
12594;BME280;6362;50.208;9.182;2023-05-29T01:51:49;100047.34;;;11.53;67.03
12594;BME280;6362;50.208;9.182;2023-05-29T01:54:18;100047.97;;;11.78;67.77
12594;BME280;6362;50.208;9.182;2023-05-29T01:56:44;100053.06;;;11.92;67.57
12594;BME280;6362;50.208;9.182;2023-05-29T01:59:10;100046.28;;;11.74;67.69
12594;BME280;6362;50.208;9.182;2023-05-29T02:01:39;100044.63;;;11.65;68.01
12594;BME280;6362;50.208;9.182;2023-05-29T02:04:05;100039.53;;;11.56;67.38
12594;BME280;6362;50.208;9.182;2023-05-29T02:06:30;100034.28;;;11.57;67.13
12594;BME280;6362;50.208;9.182;2023-05-29T02:08:56;100036.81;;;11.63;67.88
12594;BME280;6362;50.208;9.182;2023-05-29T02:11:21;100030.84;;;11.54;67.48
12594;BME280;6362;50.208;9.182;2023-05-29T02:13:47;100032.66;;;11.46;67.52
12594;BME280;6362;50.208;9.182;2023-05-29T02:16:12;100034.44;;;11.41;67.45
12594;BME280;6362;50.208;9.182;2023-05-29T02:18:38;100031.00;;;11.39;67.81
12594;BME280;6362;50.208;9.182;2023-05-29T02:21:04;100036.19;;;11.40;67.37
12594;BME280;6362;50.208;9.182;2023-05-29T02:23:29;100025.72;;;11.43;66.92
12594;BME280;6362;50.208;9.182;2023-05-29T02:25:55;100027.50;;;11.44;67.50
12594;BME280;6362;50.208;9.182;2023-05-29T02:28:20;100013.53;;;11.50;66.28
12594;BME280;6362;50.208;9.182;2023-05-29T02:30:46;100018.69;;;11.53;66.26
12594;BME280;6362;50.208;9.182;2023-05-29T02:33:11;100018.69;;;11.54;66.43
12594;BME280;6362;50.208;9.182;2023-05-29T02:35:37;100025.56;;;11.63;66.10
12594;BME280;6362;50.208;9.182;2023-05-29T02:38:02;100021.19;;;11.63;65.90
12594;BME280;6362;50.208;9.182;2023-05-29T02:40:28;100023.84;;;11.59;65.97
12594;BME280;6362;50.208;9.182;2023-05-29T02:42:53;100022.13;;;11.58;66.43
12594;BME280;6362;50.208;9.182;2023-05-29T02:45:18;100033.53;;;11.49;67.21
12594;BME280;6362;50.208;9.182;2023-05-29T02:47:44;100024.91;;;11.41;67.46
12594;BME280;6362;50.208;9.182;2023-05-29T02:50:10;100031.94;;;11.33;67.86
12594;BME280;6362;50.208;9.182;2023-05-29T02:52:35;100032.91;;;11.20;69.03
12594;BME280;6362;50.208;9.182;2023-05-29T02:55:05;100022.53;;;11.14;68.93
12594;BME280;6362;50.208;9.182;2023-05-29T02:57:31;100028.72;;;11.00;70.23
12594;BME280;6362;50.208;9.182;2023-05-29T02:59:56;100027.00;;;10.99;69.77
12594;BME280;6362;50.208;9.182;2023-05-29T03:02:21;100026.16;;;10.96;70.09
12594;BME280;6362;50.208;9.182;2023-05-29T03:04:47;100021.88;;;10.90;70.20
12594;BME280;6362;50.208;9.182;2023-05-29T03:07:16;100022.78;;;10.84;70.65
12594;BME280;6362;50.208;9.182;2023-05-29T03:09:41;100016.78;;;10.73;71.00
12594;BME280;6362;50.208;9.182;2023-05-29T03:12:07;100026.34;;;10.68;71.53
12594;BME280;6362;50.208;9.182;2023-05-29T03:14:33;100029.84;;;10.67;71.30
12594;BME280;6362;50.208;9.182;2023-05-29T03:17:03;100029.78;;;10.70;70.42
12594;BME280;6362;50.208;9.182;2023-05-29T03:19:29;100036.69;;;10.79;69.75
12594;BME280;6362;50.208;9.182;2023-05-29T03:21:54;100032.25;;;10.92;68.75
12594;BME280;6362;50.208;9.182;2023-05-29T03:24:20;100034.78;;;11.01;69.01
12594;BME280;6362;50.208;9.182;2023-05-29T03:26:46;100044.28;;;11.08;68.78
12594;BME280;6362;50.208;9.182;2023-05-29T03:29:11;100041.59;;;11.17;69.37
12594;BME280;6362;50.208;9.182;2023-05-29T03:31:37;100040.81;;;11.07;69.64
12594;BME280;6362;50.208;9.182;2023-05-29T03:34:02;100038.25;;;11.03;69.60
12594;BME280;6362;50.208;9.182;2023-05-29T03:36:27;100046.06;;;10.98;70.07
12594;BME280;6362;50.208;9.182;2023-05-29T03:38:53;100045.25;;;10.95;70.16
12594;BME280;6362;50.208;9.182;2023-05-29T03:41:19;100044.38;;;10.96;69.68
12594;BME280;6362;50.208;9.182;2023-05-29T03:43:44;100044.34;;;10.97;69.57
12594;BME280;6362;50.208;9.182;2023-05-29T03:46:10;100047.78;;;11.02;68.72
12594;BME280;6362;50.208;9.182;2023-05-29T03:48:35;100052.94;;;11.12;68.36
12594;BME280;6362;50.208;9.182;2023-05-29T03:51:00;100054.59;;;11.20;67.72
12594;BME280;6362;50.208;9.182;2023-05-29T03:53:26;100063.97;;;11.40;67.96
12594;BME280;6362;50.208;9.182;2023-05-29T03:55:51;100069.13;;;11.46;68.31
12594;BME280;6362;50.208;9.182;2023-05-29T03:58:17;100066.63;;;11.33;68.87
12594;BME280;6362;50.208;9.182;2023-05-29T04:00:42;100064.16;;;11.18;69.35
12594;BME280;6362;50.208;9.182;2023-05-29T04:03:08;100070.16;;;11.28;68.93
12594;BME280;6362;50.208;9.182;2023-05-29T04:05:33;100069.38;;;11.14;69.53
12594;BME280;6362;50.208;9.182;2023-05-29T04:07:59;100073.75;;;11.12;70.13
12594;BME280;6362;50.208;9.182;2023-05-29T04:10:24;100075.56;;;11.02;70.14
12594;BME280;6362;50.208;9.182;2023-05-29T04:12:50;100090.34;;;10.94;70.16
12594;BME280;6362;50.208;9.182;2023-05-29T04:15:16;100085.16;;;10.91;69.54
12594;BME280;6362;50.208;9.182;2023-05-29T04:17:41;100091.19;;;11.00;69.02
12594;BME280;6362;50.208;9.182;2023-05-29T04:20:07;100094.56;;;11.13;68.28
12594;BME280;6362;50.208;9.182;2023-05-29T04:22:37;100086.69;;;11.22;67.82
12594;BME280;6362;50.208;9.182;2023-05-29T04:25:03;100097.84;;;11.36;67.35
12594;BME280;6362;50.208;9.182;2023-05-29T04:27:30;100103.00;;;11.46;67.09
12594;BME280;6362;50.208;9.182;2023-05-29T04:29:57;100107.31;;;11.50;66.94
12594;BME280;6362;50.208;9.182;2023-05-29T04:32:22;100109.84;;;11.54;66.97
12594;BME280;6362;50.208;9.182;2023-05-29T04:34:48;100103.69;;;11.66;66.85
12594;BME280;6362;50.208;9.182;2023-05-29T04:37:14;100110.56;;;11.73;66.38
12594;BME280;6362;50.208;9.182;2023-05-29T04:39:40;100107.03;;;11.79;66.17
12594;BME280;6362;50.208;9.182;2023-05-29T04:42:05;100107.84;;;11.88;66.06
12594;BME280;6362;50.208;9.182;2023-05-29T04:44:31;100116.50;;;11.91;65.92
12594;BME280;6362;50.208;9.182;2023-05-29T04:46:56;100113.84;;;11.94;66.07
12594;BME280;6362;50.208;9.182;2023-05-29T04:49:22;100123.34;;;11.99;65.64
12594;BME280;6362;50.208;9.182;2023-05-29T04:51:47;100115.50;;;12.02;65.88
12594;BME280;6362;50.208;9.182;2023-05-29T04:54:13;100128.53;;;12.05;65.62
12594;BME280;6362;50.208;9.182;2023-05-29T04:56:38;100131.94;;;12.09;65.62
12594;BME280;6362;50.208;9.182;2023-05-29T04:59:05;100127.50;;;12.19;65.48
12594;BME280;6362;50.208;9.182;2023-05-29T05:01:32;100128.22;;;12.33;64.79
12594;BME280;6362;50.208;9.182;2023-05-29T05:03:59;100133.34;;;12.40;64.84
12594;BME280;6362;50.208;9.182;2023-05-29T05:06:25;100139.22;;;12.58;64.37
12594;BME280;6362;50.208;9.182;2023-05-29T05:08:51;100137.31;;;12.69;64.14
12594;BME280;6362;50.208;9.182;2023-05-29T05:11:18;100137.16;;;12.81;63.78
12594;BME280;6362;50.208;9.182;2023-05-29T05:13:43;100138.75;;;12.94;63.53
12594;BME280;6362;50.208;9.182;2023-05-29T05:16:09;100150.78;;;13.03;63.13
12594;BME280;6362;50.208;9.182;2023-05-29T05:18:35;100148.00;;;13.17;63.01
12594;BME280;6362;50.208;9.182;2023-05-29T05:21:01;100153.97;;;13.25;62.72
12594;BME280;6362;50.208;9.182;2023-05-29T05:23:28;100149.34;;;13.44;63.06
12594;BME280;6362;50.208;9.182;2023-05-29T05:25:53;100155.25;;;13.57;62.21
12594;BME280;6362;50.208;9.182;2023-05-29T05:28:19;100148.09;;;13.68;61.83
12594;BME280;6362;50.208;9.182;2023-05-29T05:30:44;100147.00;;;13.80;61.25
12594;BME280;6362;50.208;9.182;2023-05-29T05:33:10;100155.50;;;13.92;61.18
12594;BME280;6362;50.208;9.182;2023-05-29T05:35:36;100147.50;;;14.02;60.39
12594;BME280;6362;50.208;9.182;2023-05-29T05:38:01;100152.66;;;14.06;60.66
12594;BME280;6362;50.208;9.182;2023-05-29T05:40:27;100146.25;;;14.21;60.30
12594;BME280;6362;50.208;9.182;2023-05-29T05:42:53;100157.50;;;14.26;60.29
12594;BME280;6362;50.208;9.182;2023-05-29T05:45:18;100156.34;;;14.41;59.74
12594;BME280;6362;50.208;9.182;2023-05-29T05:47:43;100153.44;;;14.58;59.64
12594;BME280;6362;50.208;9.182;2023-05-29T05:50:09;100153.28;;;14.64;59.26
12594;BME280;6362;50.208;9.182;2023-05-29T05:52:35;100149.69;;;14.69;59.08
12594;BME280;6362;50.208;9.182;2023-05-29T05:55:00;100146.88;;;14.78;58.83
12594;BME280;6362;50.208;9.182;2023-05-29T05:57:26;100150.91;;;14.95;58.66
12594;BME280;6362;50.208;9.182;2023-05-29T05:59:52;100156.69;;;15.09;58.17
12594;BME280;6362;50.208;9.182;2023-05-29T06:02:18;100160.91;;;15.16;58.26
12594;BME280;6362;50.208;9.182;2023-05-29T06:04:43;100159.00;;;15.23;57.72
12594;BME280;6362;50.208;9.182;2023-05-29T06:07:09;100164.72;;;15.40;57.45
12594;BME280;6362;50.208;9.182;2023-05-29T06:09:34;100172.56;;;15.40;57.40
12594;BME280;6362;50.208;9.182;2023-05-29T06:12:00;100164.41;;;15.52;57.56
12594;BME280;6362;50.208;9.182;2023-05-29T06:14:25;100175.66;;;15.57;58.82
12594;BME280;6362;50.208;9.182;2023-05-29T06:16:51;100171.69;;;15.78;58.46
12594;BME280;6362;50.208;9.182;2023-05-29T06:19:17;100163.13;;;16.04;57.44
12594;BME280;6362;50.208;9.182;2023-05-29T06:21:42;100163.56;;;16.22;56.77
12594;BME280;6362;50.208;9.182;2023-05-29T06:24:07;100172.94;;;16.30;56.41
12594;BME280;6362;50.208;9.182;2023-05-29T06:26:33;100162.03;;;16.46;55.48
12594;BME280;6362;50.208;9.182;2023-05-29T06:28:58;100169.66;;;16.55;55.04
12594;BME280;6362;50.208;9.182;2023-05-29T06:31:24;100173.63;;;16.68;54.92
12594;BME280;6362;50.208;9.182;2023-05-29T06:33:49;100169.88;;;16.78;54.92
12594;BME280;6362;50.208;9.182;2023-05-29T06:36:15;100168.97;;;16.79;54.83
12594;BME280;6362;50.208;9.182;2023-05-29T06:38:46;100168.47;;;16.96;54.69
12594;BME280;6362;50.208;9.182;2023-05-29T06:41:11;100179.84;;;16.97;53.94
12594;BME280;6362;50.208;9.182;2023-05-29T06:43:37;100176.03;;;17.07;53.73
12594;BME280;6362;50.208;9.182;2023-05-29T06:46:02;100175.06;;;17.09;53.80
12594;BME280;6362;50.208;9.182;2023-05-29T06:48:28;100182.94;;;17.11;53.78
12594;BME280;6362;50.208;9.182;2023-05-29T06:50:53;100180.81;;;17.22;53.94
12594;BME280;6362;50.208;9.182;2023-05-29T06:53:18;100175.13;;;17.36;53.54
12594;BME280;6362;50.208;9.182;2023-05-29T06:55:44;100179.03;;;17.51;53.21
12594;BME280;6362;50.208;9.182;2023-05-29T06:58:09;100175.38;;;17.56;53.04
12594;BME280;6362;50.208;9.182;2023-05-29T07:00:35;100182.13;;;17.63;52.68
12594;BME280;6362;50.208;9.182;2023-05-29T07:03:00;100183.59;;;17.74;52.41
12594;BME280;6362;50.208;9.182;2023-05-29T07:05:26;100189.91;;;17.94;52.67
12594;BME280;6362;50.208;9.182;2023-05-29T07:07:52;100187.22;;;17.96;52.62
12594;BME280;6362;50.208;9.182;2023-05-29T07:10:17;100188.28;;;18.17;52.38
12594;BME280;6362;50.208;9.182;2023-05-29T07:12:43;100187.69;;;18.34;52.05
12594;BME280;6362;50.208;9.182;2023-05-29T07:15:08;100183.44;;;18.30;51.47
12594;BME280;6362;50.208;9.182;2023-05-29T07:17:34;100191.72;;;18.44;51.54
12594;BME280;6362;50.208;9.182;2023-05-29T07:20:00;100191.03;;;18.62;51.28
12594;BME280;6362;50.208;9.182;2023-05-29T07:22:25;100187.13;;;18.74;50.85
12594;BME280;6362;50.208;9.182;2023-05-29T07:24:50;100182.31;;;18.85;50.45
12594;BME280;6362;50.208;9.182;2023-05-29T07:27:16;100180.75;;;19.03;49.98
12594;BME280;6362;50.208;9.182;2023-05-29T07:29:41;100185.69;;;19.12;50.23
12594;BME280;6362;50.208;9.182;2023-05-29T07:32:07;100186.13;;;19.23;49.46
12594;BME280;6362;50.208;9.182;2023-05-29T07:34:32;100187.50;;;19.34;50.10
12594;BME280;6362;50.208;9.182;2023-05-29T07:37:01;100190.88;;;19.59;49.09
12594;BME280;6362;50.208;9.182;2023-05-29T07:39:27;100198.59;;;19.86;48.91
12594;BME280;6362;50.208;9.182;2023-05-29T07:41:53;100200.31;;;19.87;48.25
12594;BME280;6362;50.208;9.182;2023-05-29T07:44:18;100192.59;;;20.02;48.25
12594;BME280;6362;50.208;9.182;2023-05-29T07:46:45;100195.78;;;20.11;48.42
12594;BME280;6362;50.208;9.182;2023-05-29T07:49:10;100192.88;;;20.17;47.79
12594;BME280;6362;50.208;9.182;2023-05-29T07:51:36;100197.19;;;20.40;47.89
12594;BME280;6362;50.208;9.182;2023-05-29T07:54:02;100202.69;;;20.55;46.86
12594;BME280;6362;50.208;9.182;2023-05-29T07:56:28;100194.69;;;20.57;47.79
12594;BME280;6362;50.208;9.182;2023-05-29T07:58:53;100196.75;;;20.69;46.87
12594;BME280;6362;50.208;9.182;2023-05-29T08:01:20;100196.00;;;20.86;46.94
12594;BME280;6362;50.208;9.182;2023-05-29T08:03:49;100200.34;;;20.87;46.00
12594;BME280;6362;50.208;9.182;2023-05-29T08:06:14;100203.88;;;21.06;45.85
12594;BME280;6362;50.208;9.182;2023-05-29T08:08:40;100198.59;;;21.06;46.03
12594;BME280;6362;50.208;9.182;2023-05-29T08:11:05;100203.00;;;21.25;46.02
12594;BME280;6362;50.208;9.182;2023-05-29T08:13:31;100196.66;;;21.48;45.40
12594;BME280;6362;50.208;9.182;2023-05-29T08:15:57;100199.50;;;21.62;43.49
12594;BME280;6362;50.208;9.182;2023-05-29T08:18:26;100199.59;;;21.60;43.26
12594;BME280;6362;50.208;9.182;2023-05-29T08:20:52;100192.53;;;21.78;43.24
12594;BME280;6362;50.208;9.182;2023-05-29T08:23:20;100197.81;;;21.96;43.08
12594;BME280;6362;50.208;9.182;2023-05-29T08:25:46;100194.34;;;22.12;43.67
12594;BME280;6362;50.208;9.182;2023-05-29T08:28:11;100190.38;;;22.21;42.28
12594;BME280;6362;50.208;9.182;2023-05-29T08:30:36;100199.50;;;22.16;42.60
12594;BME280;6362;50.208;9.182;2023-05-29T08:33:05;100198.34;;;22.21;41.48
12594;BME280;6362;50.208;9.182;2023-05-29T08:35:30;100183.59;;;22.33;41.44
12594;BME280;6362;50.208;9.182;2023-05-29T08:37:56;100186.69;;;22.41;41.04
12594;BME280;6362;50.208;9.182;2023-05-29T08:40:21;100191.00;;;22.59;41.19
12594;BME280;6362;50.208;9.182;2023-05-29T08:42:59;100187.78;;;22.54;39.89
12594;BME280;6362;50.208;9.182;2023-05-29T08:45:28;100182.25;;;22.75;39.67
12594;BME280;6362;50.208;9.182;2023-05-29T08:47:54;100175.09;;;22.92;40.43
12594;BME280;6362;50.208;9.182;2023-05-29T08:50:21;100187.72;;;23.21;39.30
12594;BME280;6362;50.208;9.182;2023-05-29T08:52:47;100186.34;;;23.29;37.88
12594;BME280;6362;50.208;9.182;2023-05-29T08:55:13;100185.41;;;23.30;38.25
12594;BME280;6362;50.208;9.182;2023-05-29T08:57:39;100184.09;;;23.37;38.09
12594;BME280;6362;50.208;9.182;2023-05-29T09:00:06;100184.03;;;23.55;38.14
12594;BME280;6362;50.208;9.182;2023-05-29T09:02:39;100183.75;;;23.75;36.85
12594;BME280;6362;50.208;9.182;2023-05-29T09:05:04;100179.84;;;23.66;38.22
12594;BME280;6362;50.208;9.182;2023-05-29T09:07:32;100183.97;;;23.86;36.98
12594;BME280;6362;50.208;9.182;2023-05-29T09:09:57;100187.44;;;23.88;34.69
12594;BME280;6362;50.208;9.182;2023-05-29T09:12:24;100189.63;;;23.96;34.47
12594;BME280;6362;50.208;9.182;2023-05-29T09:14:50;100185.88;;;23.84;33.38
12594;BME280;6362;50.208;9.182;2023-05-29T09:17:15;100184.25;;;24.12;33.68
12594;BME280;6362;50.208;9.182;2023-05-29T09:19:41;100184.63;;;24.20;33.06
12594;BME280;6362;50.208;9.182;2023-05-29T09:22:09;100189.53;;;24.28;32.05
12594;BME280;6362;50.208;9.182;2023-05-29T09:24:37;100181.56;;;24.42;32.34
12594;BME280;6362;50.208;9.182;2023-05-29T09:27:03;100187.84;;;24.69;32.53
12594;BME280;6362;50.208;9.182;2023-05-29T09:29:39;100186.25;;;24.67;31.32
12594;BME280;6362;50.208;9.182;2023-05-29T09:32:16;100184.16;;;25.00;31.88
12594;BME280;6362;50.208;9.182;2023-05-29T09:34:43;100179.69;;;24.87;28.63
12594;BME280;6362;50.208;9.182;2023-05-29T09:37:10;100185.94;;;24.86;31.17
12594;BME280;6362;50.208;9.182;2023-05-29T09:39:49;100170.06;;;24.98;31.88
12594;BME280;6362;50.208;9.182;2023-05-29T09:42:16;100186.28;;;25.10;31.60
12594;BME280;6362;50.208;9.182;2023-05-29T09:44:46;100179.69;;;25.01;30.06
12594;BME280;6362;50.208;9.182;2023-05-29T09:47:17;100169.03;;;25.01;31.30
12594;BME280;6362;50.208;9.182;2023-05-29T09:49:44;100181.28;;;25.32;31.94
12594;BME280;6362;50.208;9.182;2023-05-29T09:52:14;100185.63;;;25.33;30.57
12594;BME280;6362;50.208;9.182;2023-05-29T09:54:44;100181.44;;;25.43;31.55
12594;BME280;6362;50.208;9.182;2023-05-29T09:57:13;100175.94;;;25.59;31.28
12594;BME280;6362;50.208;9.182;2023-05-29T09:59:41;100179.03;;;25.93;31.77
12594;BME280;6362;50.208;9.182;2023-05-29T10:02:10;100181.09;;;26.15;31.15
12594;BME280;6362;50.208;9.182;2023-05-29T10:04:37;100181.81;;;25.91;28.62
12594;BME280;6362;50.208;9.182;2023-05-29T10:07:09;100176.19;;;26.09;30.00
12594;BME280;6362;50.208;9.182;2023-05-29T10:09:41;100168.66;;;26.28;28.40
12594;BME280;6362;50.208;9.182;2023-05-29T10:12:13;100177.19;;;26.33;28.38
12594;BME280;6362;50.208;9.182;2023-05-29T10:14:42;100162.19;;;25.92;26.53
12594;BME280;6362;50.208;9.182;2023-05-29T10:17:11;100165.31;;;25.99;29.89
12594;BME280;6362;50.208;9.182;2023-05-29T10:19:38;100162.66;;;26.24;30.14
12594;BME280;6362;50.208;9.182;2023-05-29T10:22:05;100163.44;;;26.26;28.69
12594;BME280;6362;50.208;9.182;2023-05-29T10:24:32;100158.38;;;26.09;29.98
12594;BME280;6362;50.208;9.182;2023-05-29T10:26:58;100156.41;;;26.51;30.99
12594;BME280;6362;50.208;9.182;2023-05-29T10:29:34;100157.69;;;26.71;30.32
12594;BME280;6362;50.208;9.182;2023-05-29T10:35:10;100171.41;;;26.90;29.23
12594;BME280;6362;50.208;9.182;2023-05-29T10:37:47;100170.97;;;26.96;28.20
12594;BME280;6362;50.208;9.182;2023-05-29T10:40:15;100170.78;;;27.36;27.87
12594;BME280;6362;50.208;9.182;2023-05-29T10:42:49;100165.28;;;27.26;30.25
12594;BME280;6362;50.208;9.182;2023-05-29T10:50:49;100166.38;;;27.59;28.57
12594;BME280;6362;50.208;9.182;2023-05-29T10:53:18;100151.66;;;27.53;28.71
12594;BME280;6362;50.208;9.182;2023-05-29T10:55:47;100154.50;;;27.87;27.60
12594;BME280;6362;50.208;9.182;2023-05-29T10:58:24;100139.22;;;27.89;27.66
12594;BME280;6362;50.208;9.182;2023-05-29T11:00:51;100150.38;;;27.83;27.33
12594;BME280;6362;50.208;9.182;2023-05-29T11:03:29;100159.16;;;27.96;27.97
12594;BME280;6362;50.208;9.182;2023-05-29T11:09:25;100162.00;;;28.06;25.70
12594;BME280;6362;50.208;9.182;2023-05-29T11:11:32;100167.50;;;28.15;26.60
12594;BME280;6362;50.208;9.182;2023-05-29T11:14:04;100147.44;;;28.21;27.32
12594;BME280;6362;50.208;9.182;2023-05-29T11:18:56;100142.50;;;28.50;25.07
12594;BME280;6362;50.208;9.182;2023-05-29T11:24:04;100142.75;;;28.81;24.80
12594;BME280;6362;50.208;9.182;2023-05-29T11:26:33;100134.22;;;28.98;27.39
12594;BME280;6362;50.208;9.182;2023-05-29T11:29:02;100132.75;;;29.16;23.89
12594;BME280;6362;50.208;9.182;2023-05-29T11:31:28;100131.63;;;29.19;25.17
12594;BME280;6362;50.208;9.182;2023-05-29T11:33:59;100119.78;;;29.33;24.87
12594;BME280;6362;50.208;9.182;2023-05-29T11:36:25;100131.88;;;29.59;25.98
12594;BME280;6362;50.208;9.182;2023-05-29T11:38:51;100138.91;;;29.28;24.65
12594;BME280;6362;50.208;9.182;2023-05-29T11:41:17;100135.81;;;29.01;23.66
12594;BME280;6362;50.208;9.182;2023-05-29T11:43:43;100125.94;;;29.12;25.51
12594;BME280;6362;50.208;9.182;2023-05-29T11:46:18;100131.69;;;29.40;24.30
12594;BME280;6362;50.208;9.182;2023-05-29T11:48:48;100132.09;;;29.67;23.81
12594;BME280;6362;50.208;9.182;2023-05-29T11:51:14;100131.97;;;29.69;24.73
12594;BME280;6362;50.208;9.182;2023-05-29T11:53:45;100133.50;;;30.24;24.65
12594;BME280;6362;50.208;9.182;2023-05-29T11:56:11;100121.13;;;29.91;22.37
12594;BME280;6362;50.208;9.182;2023-05-29T11:58:38;100127.06;;;30.37;23.21
12594;BME280;6362;50.208;9.182;2023-05-29T12:01:04;100125.97;;;30.39;24.28
12594;BME280;6362;50.208;9.182;2023-05-29T12:03:40;100127.22;;;30.66;24.58
12594;BME280;6362;50.208;9.182;2023-05-29T12:06:06;100124.84;;;30.42;24.78
12594;BME280;6362;50.208;9.182;2023-05-29T12:08:32;100129.59;;;30.29;24.15
12594;BME280;6362;50.208;9.182;2023-05-29T12:10:58;100131.03;;;30.12;23.29
12594;BME280;6362;50.208;9.182;2023-05-29T12:13:23;100129.00;;;30.04;23.41
12594;BME280;6362;50.208;9.182;2023-05-29T12:15:53;100115.81;;;30.01;24.46
12594;BME280;6362;50.208;9.182;2023-05-29T12:18:19;100116.00;;;30.09;23.36
12594;BME280;6362;50.208;9.182;2023-05-29T12:20:45;100115.25;;;29.77;25.24
12594;BME280;6362;50.208;9.182;2023-05-29T12:23:10;100112.84;;;30.15;24.26
12594;BME280;6362;50.208;9.182;2023-05-29T12:25:39;100124.34;;;30.27;23.81
12594;BME280;6362;50.208;9.182;2023-05-29T12:28:05;100100.44;;;30.03;23.45
12594;BME280;6362;50.208;9.182;2023-05-29T12:30:31;100092.75;;;30.10;23.88
12594;BME280;6362;50.208;9.182;2023-05-29T12:32:56;100100.72;;;30.00;22.99
12594;BME280;6362;50.208;9.182;2023-05-29T12:35:23;100105.91;;;29.71;23.88
12594;BME280;6362;50.208;9.182;2023-05-29T12:37:54;100100.19;;;30.06;23.36
12594;BME280;6362;50.208;9.182;2023-05-29T12:40:24;100099.19;;;30.07;24.47
12594;BME280;6362;50.208;9.182;2023-05-29T12:43:01;100100.28;;;30.46;25.44
12594;BME280;6362;50.208;9.182;2023-05-29T12:45:30;100106.22;;;30.71;24.22
12594;BME280;6362;50.208;9.182;2023-05-29T12:47:57;100111.63;;;30.29;23.18
12594;BME280;6362;50.208;9.182;2023-05-29T12:50:26;100112.53;;;30.39;23.50
12594;BME280;6362;50.208;9.182;2023-05-29T12:55:23;100097.13;;;30.11;23.18
12594;BME280;6362;50.208;9.182;2023-05-29T12:57:49;100095.06;;;30.03;23.32
12594;BME280;6362;50.208;9.182;2023-05-29T13:00:15;100103.38;;;30.11;23.74
12594;BME280;6362;50.208;9.182;2023-05-29T13:02:40;100105.34;;;30.40;23.80
12594;BME280;6362;50.208;9.182;2023-05-29T13:05:06;100101.75;;;30.60;23.33
12594;BME280;6362;50.208;9.182;2023-05-29T13:07:33;100092.31;;;30.66;22.76
12594;BME280;6362;50.208;9.182;2023-05-29T13:09:59;100108.66;;;30.84;23.07
12594;BME280;6362;50.208;9.182;2023-05-29T13:12:25;100114.91;;;30.94;22.58
12594;BME280;6362;50.208;9.182;2023-05-29T13:14:50;100110.97;;;30.67;21.96
12594;BME280;6362;50.208;9.182;2023-05-29T13:17:16;100104.25;;;30.83;21.87
12594;BME280;6362;50.208;9.182;2023-05-29T13:19:42;100096.91;;;30.85;22.65
12594;BME280;6362;50.208;9.182;2023-05-29T13:22:08;100104.59;;;30.68;22.62